Cat Spring, Texas
Current Conditions -  °F | °C
As of 9:55 AM on Sunday 23 Nov 2014 (Local Time) from KELA Reporting Station
Clear Clear  
Wind Chill: 66°   Ceiling: Unl
Heat Index: 66°   Visibility: 10mi
Dew Point: 57°   Wind: 9mph
Humidity: 72%   Direction: 240°WSW
Pressure: 29.68"   Gusts: NA
Location:  29.85°N, 96.33°W
Report Text: KELA 231555Z AUTO 24008KT 10SM CLR 19/14 A2968 RMK AO2 T01900138
Loading
Personal Weather Stations






























Interactive Weather Map New forecast layout! Learn more

10-Day Weather Forecast

Advertisements
Track Severe Weather on mobile